Terminal Aerodrome Forecast
Issued by NWS

Home | Current Version | Previous Version | Text Only | Print | Product List | Glossary On
Versions: 1 2 3 4 5 6 7 8 9 10 11 12 13 14 15 16 17
000
FTUS45 KRIW 221727
TAFCPR
TAF
KCPR 221727Z 2218/2318 24011KT P6SM SCT060 BKN110
     FM221900 29015KT P6SM SCT060 BKN100
     FM230000 36008KT P6SM SCT040 OVC060
     FM230500 02010KT P6SM VCSH OVC020
     FM230700 03013KT 2SM -SN OVC010
     FM231000 04018G30KT 1/2SM SN BLSN VV005=

USA.gov is the U.S. government's official web portal to all federal, state and local government web resources and services.